createdAt,value
2022-12-16T00:01:07.923Z,98174.63
2022-12-16T00:05:13.247Z,98177.91
2022-12-16T00:09:16.558Z,98171.72
2022-12-16T00:13:19.683Z,98166.00
2022-12-16T00:17:23.897Z,98180.31
2022-12-16T00:21:28.847Z,98168.53
2022-12-16T00:25:32.158Z,98159.28
2022-12-16T00:29:35.220Z,98175.47
2022-12-16T00:33:38.311Z,98177.50
2022-12-16T00:37:43.119Z,98175.22
2022-12-16T00:41:47.840Z,98181.72
2022-12-16T00:45:51.911Z,98183.31
2022-12-16T00:49:55.562Z,98190.66
2022-12-16T00:54:00.172Z,98196.06
2022-12-16T00:58:03.395Z,98198.06
2022-12-16T01:02:07.339Z,98203.25
2022-12-16T01:06:13.114Z,98198.13
2022-12-16T01:10:17.679Z,98200.53
2022-12-16T01:14:21.561Z,98190.63
2022-12-16T01:18:24.878Z,98217.59
2022-12-16T01:22:28.433Z,98222.09
2022-12-16T01:26:33.611Z,98221.53
2022-12-16T01:30:36.781Z,98234.72
2022-12-16T01:34:39.995Z,98233.09
2022-12-16T01:38:45.077Z,98231.50
2022-12-16T01:42:50.891Z,98241.13
2022-12-16T01:46:57.689Z,98252.91
2022-12-16T01:51:03.234Z,98260.34
2022-12-16T01:55:11.037Z,98257.13
2022-12-16T01:59:17.011Z,98259.03
2022-12-16T02:03:20.693Z,98227.59
2022-12-16T02:07:24.069Z,98260.50
2022-12-16T02:11:43.307Z,98259.88
2022-12-16T02:15:51.742Z,98260.19
2022-12-16T02:20:23.975Z,98261.28
2022-12-16T02:25:15.989Z,98257.91
2022-12-16T02:29:48.015Z,98262.53
2022-12-16T02:34:10.278Z,98266.75
2022-12-16T02:38:21.065Z,98253.56
2022-12-16T02:42:30.482Z,98268.78
2022-12-16T02:46:34.548Z,98271.72
2022-12-16T02:50:42.327Z,98276.50
2022-12-16T02:54:45.636Z,98275.22
2022-12-16T02:58:53.497Z,98273.63
2022-12-16T03:03:00.084Z,98266.84
2022-12-16T03:07:05.926Z,98282.34
2022-12-16T03:11:09.496Z,98275.81
2022-12-16T03:15:16.998Z,98286.69
2022-12-16T03:19:21.327Z,98290.03
2022-12-16T03:23:29.414Z,98294.53
2022-12-16T03:27:37.338Z,98297.78
2022-12-16T03:31:44.213Z,98307.00
2022-12-16T03:35:51.192Z,98307.53
2022-12-16T03:39:58.082Z,98306.47
2022-12-16T03:44:02.110Z,98313.41
2022-12-16T03:48:08.655Z,98307.97
2022-12-16T03:52:11.939Z,98316.31
2022-12-16T03:56:17.045Z,98310.94
2022-12-16T04:00:20.967Z,98316.72
2022-12-16T04:04:25.337Z,98319.28
2022-12-16T04:08:28.693Z,98331.19
2022-12-16T04:12:51.440Z,98336.31
2022-12-16T04:17:12.273Z,98314.84
2022-12-16T04:25:32.641Z,98346.16
2022-12-16T04:29:58.231Z,98355.06
2022-12-16T04:34:18.857Z,98351.28
2022-12-16T04:38:39.545Z,98353.16
2022-12-16T04:43:00.006Z,98365.97
2022-12-16T04:55:44.986Z,98385.66
2022-12-16T05:00:05.185Z,98391.13
2022-12-16T05:08:42.120Z,98394.13
2022-12-16T05:13:07.121Z,98411.41
2022-12-16T05:17:28.323Z,98402.69
2022-12-16T05:21:48.566Z,98407.84
2022-12-16T06:08:57.377Z,98481.34
2022-12-16T08:13:40.083Z,98658.06
2022-12-16T08:18:01.614Z,98664.81
2022-12-16T08:22:22.136Z,98673.13
2022-12-16T08:26:42.344Z,98682.47
2022-12-16T08:31:08.882Z,98677.34
2022-12-16T08:35:29.494Z,98688.31
2022-12-16T08:40:10.665Z,98694.78
2022-12-16T08:44:30.305Z,98699.22
2022-12-16T08:48:52.010Z,98706.97
2022-12-16T08:53:12.127Z,98705.50
2022-12-16T08:57:32.691Z,98715.00
2022-12-16T09:01:53.026Z,98721.44
2022-12-16T09:06:18.262Z,98718.50
2022-12-16T09:10:40.594Z,98725.22
2022-12-16T09:15:01.070Z,98733.13
2022-12-16T09:19:21.674Z,98730.31
2022-12-16T09:23:43.363Z,98728.47
2022-12-16T09:28:18.186Z,98749.16
2022-12-16T09:32:34.962Z,98746.56
2022-12-16T09:36:55.270Z,98755.06
2022-12-16T09:41:18.036Z,98755.06
2022-12-16T09:45:45.002Z,98759.94
2022-12-16T09:50:07.174Z,98756.44
2022-12-16T09:54:30.960Z,98771.09
2022-12-16T09:58:56.607Z,98766.78
2022-12-16T10:03:17.841Z,98761.63
2022-12-16T10:07:40.221Z,98768.78
2022-12-16T10:12:06.611Z,98757.63
2022-12-16T10:16:42.431Z,98764.13
2022-12-16T10:21:05.183Z,98752.97
2022-12-16T10:25:30.571Z,98758.72
2022-12-16T10:29:55.000Z,98762.75
2022-12-16T10:34:17.924Z,98765.25
2022-12-16T10:38:40.724Z,98770.88
2022-12-16T10:43:20.966Z,98767.63
2022-12-16T10:47:42.787Z,98766.72
2022-12-16T10:52:09.250Z,98777.44
2022-12-16T10:56:43.069Z,98772.38
2022-12-16T11:01:05.610Z,98775.38
2022-12-16T11:05:42.035Z,98772.06
2022-12-16T11:10:03.801Z,98781.56
2022-12-16T11:14:34.921Z,98771.84
2022-12-16T11:19:07.694Z,98777.59
2022-12-16T11:23:37.640Z,98782.56
2022-12-16T11:27:59.285Z,98770.16
2022-12-16T11:32:22.190Z,98775.47
2022-12-16T11:36:43.209Z,98767.78
2022-12-16T11:41:03.302Z,98773.75
2022-12-16T11:45:31.690Z,98778.19
2022-12-16T11:55:27.629Z,98780.56
2022-12-16T12:00:01.512Z,98785.84
2022-12-16T12:04:23.491Z,98760.81
2022-12-16T12:08:50.376Z,98783.69
2022-12-16T12:13:15.519Z,98796.25
2022-12-16T12:17:43.586Z,98789.97
2022-12-16T12:22:20.271Z,98791.72
2022-12-16T12:26:44.158Z,98792.72
2022-12-16T12:31:09.117Z,98804.56
2022-12-16T12:35:39.912Z,98800.19
2022-12-16T12:40:04.677Z,98812.78
2022-12-16T12:44:37.052Z,98812.00
2022-12-16T12:49:13.440Z,98807.41
2022-12-16T12:53:42.185Z,98812.59
2022-12-16T12:58:05.587Z,98817.41
2022-12-16T13:02:30.889Z,98810.81
2022-12-16T13:06:53.372Z,98817.63
2022-12-16T13:11:35.008Z,98820.88
2022-12-16T13:15:58.311Z,98826.50
2022-12-16T13:20:18.957Z,98828.06
2022-12-16T13:24:39.964Z,98821.66
2022-12-16T13:29:00.815Z,98840.94
2022-12-16T13:33:25.774Z,98838.50
2022-12-16T13:37:46.940Z,98843.72
2022-12-16T13:42:10.101Z,98844.91
2022-12-16T13:46:35.638Z,98856.13
2022-12-16T13:50:59.061Z,98864.69
2022-12-16T13:55:32.246Z,98866.84
2022-12-16T13:59:56.092Z,98861.34
2022-12-16T14:04:18.265Z,98883.25
2022-12-16T14:08:41.783Z,98887.00
2022-12-16T14:13:14.656Z,98892.94
2022-12-16T14:17:37.374Z,98901.50
2022-12-16T14:22:10.276Z,98903.06
2022-12-16T14:26:33.033Z,98906.38
2022-12-16T14:30:53.185Z,98919.34
2022-12-16T14:35:19.735Z,98920.91
2022-12-16T14:39:49.028Z,98929.13
2022-12-16T14:44:10.815Z,98936.13
2022-12-16T14:48:42.094Z,98938.91
2022-12-16T14:53:22.252Z,98937.38
2022-12-16T14:57:43.291Z,98963.06
2022-12-16T15:02:05.811Z,98966.94
2022-12-16T15:06:31.216Z,98968.41
2022-12-16T15:10:52.146Z,98981.66
2022-12-16T15:15:15.156Z,98984.44
2022-12-16T15:19:39.055Z,98987.22
2022-12-16T15:24:00.932Z,99000.13
2022-12-16T15:28:32.512Z,99010.88
2022-12-16T15:32:54.388Z,99031.94
2022-12-16T15:37:15.846Z,99019.44
2022-12-16T15:41:40.002Z,99038.25
2022-12-16T15:46:07.228Z,99049.13
2022-12-16T15:50:30.960Z,99061.66
2022-12-16T15:54:53.128Z,99068.00
2022-12-16T15:59:33.139Z,99073.59
2022-12-16T16:03:53.305Z,99086.31
2022-12-16T16:08:13.560Z,99098.19
2022-12-16T16:12:36.907Z,99104.16
2022-12-16T16:16:57.108Z,99106.59
2022-12-16T16:21:17.192Z,99126.31
2022-12-16T16:25:37.348Z,99117.91
2022-12-16T16:29:59.069Z,99127.38
2022-12-16T16:34:19.135Z,99135.50
2022-12-16T16:38:39.398Z,99132.56
2022-12-16T16:42:59.934Z,99148.41
2022-12-16T16:47:21.955Z,99147.53
2022-12-16T16:51:42.073Z,99143.31
2022-12-16T16:56:02.626Z,99160.09
2022-12-16T17:00:24.185Z,99163.44
2022-12-16T17:04:45.958Z,99174.97
2022-12-16T17:09:06.511Z,99184.34
2022-12-16T17:13:27.919Z,99185.47
2022-12-16T17:17:59.831Z,99188.91
2022-12-16T17:22:21.748Z,99178.59
2022-12-16T17:26:42.418Z,99202.69
2022-12-16T17:31:03.369Z,99200.97
2022-12-16T17:35:24.402Z,99196.69
2022-12-16T17:39:46.239Z,99214.53
2022-12-16T17:44:06.406Z,99231.19
2022-12-16T17:48:27.169Z,99236.47
2022-12-16T17:52:47.347Z,99229.63
2022-12-16T17:57:09.359Z,99255.81
2022-12-16T18:01:29.873Z,99256.44
2022-12-16T18:05:50.403Z,99254.72
2022-12-16T18:10:10.802Z,99243.72
2022-12-16T18:14:32.865Z,99258.34
2022-12-16T18:18:53.872Z,99269.59
2022-12-16T18:23:17.611Z,99265.38
2022-12-16T18:27:37.970Z,99274.00
2022-12-16T18:32:01.223Z,99269.63
2022-12-16T18:36:22.063Z,99288.47
2022-12-16T18:40:42.297Z,99287.88
2022-12-16T18:45:02.671Z,99296.88
2022-12-16T18:49:25.225Z,99295.28
2022-12-16T18:53:46.280Z,99307.28
2022-12-16T18:58:27.533Z,99311.38
2022-12-16T19:02:48.784Z,99303.56
2022-12-16T19:07:11.061Z,99316.13
2022-12-16T19:11:31.394Z,99320.75
2022-12-16T19:15:52.580Z,99321.28
2022-12-16T19:20:09.635Z,99329.53
2022-12-16T19:24:31.734Z,99343.31
2022-12-16T19:28:53.241Z,99345.38
2022-12-16T19:33:17.526Z,99346.84
2022-12-16T19:37:38.122Z,99350.91
2022-12-16T19:42:00.392Z,99352.22
2022-12-16T19:46:21.159Z,99356.28
2022-12-16T19:50:41.709Z,99351.78
2022-12-16T19:55:03.255Z,99351.59
2022-12-16T19:59:27.482Z,99382.41
2022-12-16T20:03:48.779Z,99391.94
2022-12-16T20:08:10.136Z,99395.94
2022-12-16T20:12:31.004Z,99393.88
2022-12-16T20:16:52.943Z,99395.19
2022-12-16T20:21:14.246Z,99403.91
2022-12-16T20:25:34.683Z,99394.56
2022-12-16T20:29:56.447Z,99413.81
2022-12-16T20:34:18.697Z,99414.25
2022-12-16T20:38:39.356Z,99415.31
2022-12-16T20:42:59.851Z,99426.31
2022-12-16T20:47:20.822Z,99433.13
2022-12-16T20:51:43.123Z,99431.84
2022-12-16T20:56:03.881Z,99439.88
2022-12-16T21:00:25.584Z,99443.06
2022-12-16T21:04:46.644Z,99451.69
2022-12-16T21:09:07.494Z,99459.59
2022-12-16T21:13:29.137Z,99466.97
2022-12-16T21:17:49.775Z,99473.97
2022-12-16T21:22:10.964Z,99470.19
2022-12-16T21:26:33.120Z,99478.22
2022-12-16T21:30:53.847Z,99489.63
2022-12-16T21:35:14.976Z,99494.59
2022-12-16T21:39:40.775Z,99496.97
2022-12-16T21:44:01.937Z,99502.88
2022-12-16T21:48:22.405Z,99514.28
2022-12-16T21:52:39.786Z,99519.91
2022-12-16T21:57:00.803Z,99532.38
2022-12-16T22:01:23.400Z,99531.31
2022-12-16T22:05:43.946Z,99543.03
2022-12-16T22:10:05.714Z,99546.53
2022-12-16T22:14:26.152Z,99547.00
2022-12-16T22:18:48.246Z,99537.94
2022-12-16T22:23:08.971Z,99561.69
2022-12-16T22:27:31.035Z,99569.28
2022-12-16T22:36:20.980Z,99568.56
2022-12-16T22:40:41.537Z,99578.31
2022-12-16T22:49:30.014Z,99584.16
2022-12-16T22:53:52.247Z,99593.63
2022-12-16T22:58:13.286Z,99585.41
2022-12-16T23:07:10.293Z,99603.94
2022-12-16T23:11:38.588Z,99593.25
2022-12-16T23:16:15.420Z,99609.41
2022-12-16T23:20:36.417Z,99622.34
2022-12-16T23:24:57.362Z,99617.75
2022-12-16T23:29:19.511Z,99635.59
2022-12-16T23:33:40.182Z,99622.47
2022-12-16T23:38:06.602Z,99615.91
2022-12-16T23:42:27.873Z,99617.63
2022-12-16T23:46:50.577Z,99630.78
2022-12-16T23:51:12.128Z,99637.47
2022-12-16T23:55:33.894Z,99638.34
2022-12-16T23:59:54.652Z,99633.16
